地図

経路データ

SID SEASON NUMBER BASIN SUBBASIN NAME ISO_TIME NATURE LAT LON WMO_WIND WMO_PRES WMO_AGENCY TRACK_TYPE DIST2LAND LANDFALL IFLAG USA_AGENCY USA_ATCF_ID USA_LAT USA_LON USA_RECORD USA_STATUS USA_WIND USA_PRES USA_SSHS USA_R34_NE USA_R34_SE USA_R34_SW USA_R34_NW USA_R50_NE USA_R50_SE USA_R50_SW USA_R50_NW USA_R64_NE USA_R64_SE USA_R64_SW USA_R64_NW USA_POCI USA_ROCI USA_RMW USA_EYE TOKYO_LAT TOKYO_LON TOKYO_GRADE TOKYO_WIND TOKYO_PRES TOKYO_R50_DIR TOKYO_R50_LONG TOKYO_R50_SHORT TOKYO_R30_DIR TOKYO_R30_LONG TOKYO_R30_SHORT TOKYO_LAND CMA_LAT CMA_LON CMA_CAT CMA_WIND CMA_PRES HKO_LAT HKO_LON HKO_CAT HKO_WIND HKO_PRES NEWDELHI_LAT NEWDELHI_LON NEWDELHI_GRADE NEWDELHI_WIND NEWDELHI_PRES NEWDELHI_CI NEWDELHI_DP NEWDELHI_POCI REUNION_LAT REUNION_LON REUNION_TYPE REUNION_WIND REUNION_PRES REUNION_TNUM REUNION_CI REUNION_RMW REUNION_R34_NE REUNION_R34_SE REUNION_R34_SW REUNION_R34_NW REUNION_R50_NE REUNION_R50_SE REUNION_R50_SW REUNION_R50_NW REUNION_R64_NE REUNION_R64_SE REUNION_R64_SW REUNION_R64_NW BOM_LAT BOM_LON BOM_TYPE BOM_WIND BOM_PRES BOM_TNUM BOM_CI BOM_RMW BOM_R34_NE BOM_R34_SE BOM_R34_SW BOM_R34_NW BOM_R50_NE BOM_R50_SE BOM_R50_SW BOM_R50_NW BOM_R64_NE BOM_R64_SE BOM_R64_SW BOM_R64_NW BOM_ROCI BOM_POCI BOM_EYE BOM_POS_METHOD BOM_PRES_METHOD NADI_LAT NADI_LON NADI_CAT NADI_WIND NADI_PRES WELLINGTON_LAT WELLINGTON_LON WELLINGTON_WIND WELLINGTON_PRES DS824_LAT DS824_LON DS824_STAGE DS824_WIND DS824_PRES TD9636_LAT TD9636_LON TD9636_STAGE TD9636_WIND TD9636_PRES TD9635_LAT TD9635_LON TD9635_WIND TD9635_PRES TD9635_ROCI NEUMANN_LAT NEUMANN_LON NEUMANN_CLASS NEUMANN_WIND NEUMANN_PRES MLC_LAT MLC_LON MLC_CLASS MLC_WIND MLC_PRES USA_GUST BOM_GUST BOM_GUST_PER REUNION_GUST REUNION_GUST_PER USA_SEAHGT USA_SEARAD_NE USA_SEARAD_SE USA_SEARAD_SW USA_SEARAD_NW STORM_SPEED STORM_DIR
1978134N11091 1978 34 NI BB NOT_NAMED 1978-05-14 00:00:00 TS 11.1000 91.0000 main 642 599 O________OO___ jtwc_io IO011978 11.1000 91.0000 XX 25 -5 11.1000 91.0000 TC 25 11.1000 91.0000 1 9 12
1978134N11091 1978 34 NI BB NOT_NAMED 1978-05-14 03:00:00 TS 11.5538 91.1003 main 590 548 P________PP___ IO011978 11.5650 91.0975 XX 25 -5 11.5650 91.0975 TC 25 11.5313 91.1059 1 9 13
1978134N11091 1978 34 NI BB NOT_NAMED 1978-05-14 06:00:00 TS 11.9834 91.2032 main 548 515 O________OP___ jtwc_io IO011978 12.0000 91.2000 XX 25 -5 12.0000 91.2000 TC 25 11.9501 91.2097 1 8 14
1978134N11091 1978 34 NI BB NOT_NAMED 1978-05-14 09:00:00 TS 12.3679 91.3079 main 506 474 P________PP___ IO011978 12.3800 91.3075 XX 25 -5 12.3800 91.3075 TC 25 12.3438 91.3086 1 7 15
1978134N11091 1978 34 NI BB NOT_NAMED 1978-05-14 12:00:00 TS 12.7000 91.4000 main 474 442 O________OO___ jtwc_io IO011978 12.7000 91.4000 XX 25 -5 12.7000 91.4000 TC 25 12.7000 91.4000 1 6 14
1978134N11091 1978 34 NI BB NOT_NAMED 1978-05-14 15:00:00 TS 12.9753 91.4608 main 442 426 P________PP___ IO011978 12.9575 91.4501 XX 27 -5 12.9575 91.4501 TC 27 13.0109 91.4823 1 5 13
1978134N11091 1978 34 NI BB NOT_NAMED 1978-05-14 18:00:00 TS 13.2291 91.5192 main 426 395 O________OP___ jtwc_io IO011978 13.2000 91.5000 XX 30 -5 13.2000 91.5000 TC 30 13.2874 91.5577 1 6 15
1978134N11091 1978 34 NI BB NOT_NAMED 1978-05-14 21:00:00 TS 13.5151 91.6097 main 395 364 P________PP___ IO011978 13.5000 91.6000 XX 30 -5 13.5000 91.6000 TC 30 13.5453 91.6292 1 6 17
1978134N11091 1978 34 NI BB NOT_NAMED 1978-05-15 00:00:00 TS 13.8000 91.7000 main 364 341 O________OO___ jtwc_io IO011978 13.8000 91.7000 XX 30 -5 13.8000 91.7000 TC 30 13.8000 91.7000 1 6 15
1978134N11091 1978 34 NI BB NOT_NAMED 1978-05-15 03:00:00 TS 14.0637 91.7597 main 334 320 P________PP___ IO011978 14.0500 91.7501 XX 30 -5 14.0500 91.7501 TC 30 14.0912 91.7790 1 5 13
1978134N11091 1978 34 NI BB NOT_NAMED 1978-05-15 06:00:00 TS 14.3267 91.8192 main 320 292 O________OP___ jtwc_io IO011978 14.3000 91.8000 XX 30 -5 14.3000 91.8000 TC 30 14.3800 91.8575 1 6 15
1978134N11091 1978 34 NI BB NOT_NAMED 1978-05-15 09:00:00 TS 14.6279 91.9107 main 292 266 P________PP___ IO011978 14.6150 91.8999 XX 32 -5 14.6150 91.8999 TC 32 14.6537 91.9322 1 6 17
1978134N11091 1978 34 NI BB NOT_NAMED 1978-05-15 12:00:00 TS 14.9000 92.0000 main 266 246 O________OO___ jtwc_io IO011978 14.9000 92.0000 XX 35 -5 14.9000 92.0000 TC 35 14.9000 92.0000 2 5 18
1978134N11091 1978 34 NI BB NOT_NAMED 1978-05-15 15:00:00 TS 15.0671 92.0588 main 246 242 P________PP___ IO011978 15.0650 92.0576 XX 35 -5 15.0650 92.0576 TC 35 15.0712 92.0614 2 3 19
1978134N11091 1978 34 NI BB NOT_NAMED 1978-05-15 18:00:00 TS 15.2067 92.1050 main 242 224 O________OP___ jtwc_io IO011978 15.2000 92.1000 XX 35 -5 15.2000 92.1000 TC 35 15.2200 92.1151 2 3 15
1978134N11091 1978 34 NI BB NOT_NAMED 1978-05-15 21:00:00 TS 15.3746 92.1538 main 224 218 P________PP___ IO011978 15.3700 92.1500 XX 35 -5 15.3700 92.1500 TC 35 15.3837 92.1613 2 4 13
1978134N11091 1978 34 NI BB NOT_NAMED 1978-05-16 00:00:00 TS 15.6000 92.2000 main 218 214 O________OO___ jtwc_io IO011978 15.6000 92.2000 XX 35 -5 15.6000 92.2000 TC 35 15.6000 92.2000 2 6 10
1978134N11091 1978 34 NI BB NOT_NAMED 1978-05-16 03:00:00 TS 15.9232 92.2504 main 203 203 P________PP___ IO011978 15.9200 92.2575 XX 37 -5 15.9200 92.2575 TC 37 15.9297 92.2362 2 7 7
1978134N11091 1978 34 NI BB NOT_NAMED 1978-05-16 06:00:00 TS 16.3042 92.2883 main 205 205 O________OP___ jtwc_io IO011978 16.3000 92.3000 XX 40 -5 16.3000 92.3000 TC 40 16.3125 92.2650 2 8 3
1978134N11091 1978 34 NI BB NOT_NAMED 1978-05-16 09:00:00 TS 16.7097 92.3004 main 214 214 P________PP___ IO011978 16.7075 92.3075 XX 40 -5 16.7075 92.3075 TC 40 16.7141 92.2862 2 8 2
1978134N11091 1978 34 NI BB NOT_NAMED 1978-05-16 12:00:00 TS 17.1000 92.3000 main 223 223 O________OO___ jtwc_io IO011978 17.1000 92.3000 XX 40 -5 17.1000 92.3000 TC 40 17.1000 92.3000 2 7 0
1978134N11091 1978 34 NI BB NOT_NAMED 1978-05-16 15:00:00 TS 17.4090 92.2891 main 229 207 P________PP___ IO011978 17.4150 92.3000 XX 42 -5 17.4150 92.3000 TC 42 17.3971 92.2673 2 6 0
1978134N11091 1978 34 NI BB NOT_NAMED 1978-05-16 18:00:00 TS 17.6924 92.2779 main 207 185 O________OP___ jtwc_io IO011978 17.7000 92.3000 XX 45 -5 17.7000 92.3000 TC 45 17.6773 92.2337 2 6 359
1978134N11091 1978 34 NI BB NOT_NAMED 1978-05-16 21:00:00 TS 17.9796 92.2628 main 185 167 P________PP___ IO011978 17.9850 92.2777 XX 47 -5 17.9850 92.2777 TC 47 17.9689 92.2332 2 6 2
1978134N11091 1978 34 NI BB NOT_NAMED 1978-05-17 00:00:00 TS 18.3000 92.3000 main 167 140 O________OO___ jtwc_io IO011978 18.3000 92.3000 XX 50 -5 18.3000 92.3000 TC 50 18.3000 92.3000 2 7 12
1978134N11091 1978 34 NI BB NOT_NAMED 1978-05-17 03:00:00 TS 18.6770 92.4181 main 140 107 P________PP___ IO011978 18.6699 92.3977 XX 55 -5 18.6699 92.3977 TC 55 18.6913 92.4589 2 9 21
1978134N11091 1978 34 NI BB NOT_NAMED 1978-05-17 06:00:00 TS 19.1111 92.6317 main 107 55 O________OP___ jtwc_io IO011978 19.1000 92.6000 XX 60 -5 19.1000 92.6000 TC 60 19.1332 92.6951 2 10 28
1978134N11091 1978 34 NI BB NOT_NAMED 1978-05-17 09:00:00 TS 19.5930 92.9392 main 55 0 P________PP___ IO011978 19.5852 92.9169 XX 52 -5 19.5852 92.9169 TC 52 19.6084 92.9838 2 12 32
1978134N11091 1978 34 NI BB NOT_NAMED 1978-05-17 12:00:00 TS 20.1000 93.3000 main 0 O________OO___ jtwc_io IO011978 20.1000 93.3000 XX 45 -5 20.1000 93.3000 TC 45 20.1000 93.3000 2 12 34

IBTrACS Databaseについて

本データベースは、米国NOAAが公開する1842年以降の世界の熱帯低気圧のベストトラックデータアーカイブInternational Best Track Archive for Climate Stewardship (IBTrACS)を、ウェブで閲覧しやすい形式に変換したものです。

最終更新日:2021-12-06